sensor_id;sensor_type;location;lat;lon;timestamp;pressure;altitude;pressure_sealevel;temperature;humidity
65227;BME280;51805;49.012;12.104;2023-02-19T00:01:30;98170.63;;;21.75;56.55
65227;BME280;51805;49.012;12.104;2023-02-19T00:03:57;98170.63;;;21.75;56.41
65227;BME280;51805;49.012;12.104;2023-02-19T00:06:23;98180.13;;;21.78;56.46
65227;BME280;51805;49.012;12.104;2023-02-19T00:08:48;98170.63;;;21.75;56.34
65227;BME280;51805;49.012;12.104;2023-02-19T00:11:15;98170.63;;;21.75;56.44
65227;BME280;51805;49.012;12.104;2023-02-19T00:13:42;98159.81;;;21.75;56.26
65227;BME280;51805;49.012;12.104;2023-02-19T00:18:38;98159.00;;;21.75;56.38
65227;BME280;51805;49.012;12.104;2023-02-19T00:21:04;98166.06;;;21.76;56.32
65227;BME280;51805;49.012;12.104;2023-02-19T00:23:29;98152.75;;;21.74;56.52
65227;BME280;51805;49.012;12.104;2023-02-19T00:25:54;98163.03;;;21.72;56.08
65227;BME280;51805;49.012;12.104;2023-02-19T00:28:20;98157.91;;;21.71;56.28
65227;BME280;51805;49.012;12.104;2023-02-19T00:30:45;98159.78;;;21.70;56.23
65227;BME280;51805;49.012;12.104;2023-02-19T00:33:10;98164.13;;;21.71;56.25
65227;BME280;51805;49.012;12.104;2023-02-19T00:35:36;98159.78;;;21.70;56.25
65227;BME280;51805;49.012;12.104;2023-02-19T00:38:01;98150.06;;;21.69;56.16
65227;BME280;51805;49.012;12.104;2023-02-19T00:40:26;98160.88;;;21.69;56.07
65227;BME280;51805;49.012;12.104;2023-02-19T00:42:51;98159.78;;;21.70;56.15
65227;BME280;51805;49.012;12.104;2023-02-19T00:45:17;98154.63;;;21.69;56.04
65227;BME280;51805;49.012;12.104;2023-02-19T00:47:42;98150.59;;;21.66;56.04
65227;BME280;51805;49.012;12.104;2023-02-19T00:50:07;98146.00;;;21.67;56.01
65227;BME280;51805;49.012;12.104;2023-02-19T00:52:32;98157.34;;;21.69;56.13
65227;BME280;51805;49.012;12.104;2023-02-19T00:54:57;98160.31;;;21.72;55.98
65227;BME280;51805;49.012;12.104;2023-02-19T00:57:23;98153.56;;;21.70;55.92
65227;BME280;51805;49.012;12.104;2023-02-19T00:59:48;98144.63;;;21.69;55.73
65227;BME280;51805;49.012;12.104;2023-02-19T01:02:13;98146.78;;;21.67;55.97
65227;BME280;51805;49.012;12.104;2023-02-19T01:04:38;98150.59;;;21.66;55.94
65227;BME280;51805;49.012;12.104;2023-02-19T01:07:03;98150.59;;;21.66;55.90
65227;BME280;51805;49.012;12.104;2023-02-19T01:09:28;98138.94;;;21.66;55.79
65227;BME280;51805;49.012;12.104;2023-02-19T01:11:53;98142.47;;;21.66;55.77
65227;BME280;51805;49.012;12.104;2023-02-19T01:14:19;98141.38;;;21.67;55.83
65227;BME280;51805;49.012;12.104;2023-02-19T01:16:44;98132.47;;;21.67;55.85
65227;BME280;51805;49.012;12.104;2023-02-19T01:19:09;98135.72;;;21.64;55.93
65227;BME280;51805;49.012;12.104;2023-02-19T01:21:34;98137.34;;;21.65;55.81
65227;BME280;51805;49.012;12.104;2023-02-19T01:23:59;98127.34;;;21.65;55.86
65227;BME280;51805;49.012;12.104;2023-02-19T01:26:25;98128.13;;;21.66;55.64
65227;BME280;51805;49.012;12.104;2023-02-19T01:28:51;98115.97;;;21.63;55.71
65227;BME280;51805;49.012;12.104;2023-02-19T01:31:17;98120.00;;;21.66;55.63
65227;BME280;51805;49.012;12.104;2023-02-19T01:33:43;98108.91;;;21.67;55.37
65227;BME280;51805;49.012;12.104;2023-02-19T01:36:09;98109.47;;;21.64;55.60
65227;BME280;51805;49.012;12.104;2023-02-19T01:38:34;98099.72;;;21.63;55.48
65227;BME280;51805;49.012;12.104;2023-02-19T01:41:00;98097.59;;;21.65;55.52
65227;BME280;51805;49.012;12.104;2023-02-19T01:43:26;98091.34;;;21.65;55.31
65227;BME280;51805;49.012;12.104;2023-02-19T01:45:51;98083.25;;;21.65;55.45
65227;BME280;51805;49.012;12.104;2023-02-19T01:48:23;98081.34;;;21.65;55.21
65227;BME280;51805;49.012;12.104;2023-02-19T01:50:52;98075.66;;;21.62;55.28
65227;BME280;51805;49.012;12.104;2023-02-19T01:53:19;98074.03;;;21.66;55.19
65227;BME280;51805;49.012;12.104;2023-02-19T01:55:46;98073.78;;;21.62;55.40
65227;BME280;51805;49.012;12.104;2023-02-19T01:58:12;98070.00;;;21.63;54.97
65227;BME280;51805;49.012;12.104;2023-02-19T02:00:38;98070.00;;;21.63;55.33
65227;BME280;51805;49.012;12.104;2023-02-19T02:03:03;98061.88;;;21.63;55.17
65227;BME280;51805;49.012;12.104;2023-02-19T02:05:32;98054.59;;;21.64;54.93
65227;BME280;51805;49.012;12.104;2023-02-19T02:07:59;98056.19;;;21.65;55.12
65227;BME280;51805;49.012;12.104;2023-02-19T02:10:26;98041.06;;;21.64;55.03
65227;BME280;51805;49.012;12.104;2023-02-19T02:12:51;98040.25;;;21.63;54.97
65227;BME280;51805;49.012;12.104;2023-02-19T02:15:20;98037.53;;;21.63;54.82
65227;BME280;51805;49.012;12.104;2023-02-19T02:18:09;98029.69;;;21.62;54.98
65227;BME280;51805;49.012;12.104;2023-02-19T02:20:52;98031.56;;;21.61;54.79
65227;BME280;51805;49.012;12.104;2023-02-19T02:23:39;98018.59;;;21.63;54.92
65227;BME280;51805;49.012;12.104;2023-02-19T02:26:32;98029.41;;;21.63;54.63
65227;BME280;51805;49.012;12.104;2023-02-19T02:31:38;98016.44;;;21.65;54.68
65227;BME280;51805;49.012;12.104;2023-02-19T02:34:15;98002.66;;;21.62;54.64
65227;BME280;51805;49.012;12.104;2023-02-19T02:36:43;98007.22;;;21.61;54.75
65227;BME280;51805;49.012;12.104;2023-02-19T02:39:13;97997.50;;;21.60;54.54
65227;BME280;51805;49.012;12.104;2023-02-19T02:41:42;97986.16;;;21.58;54.59
65227;BME280;51805;49.012;12.104;2023-02-19T02:44:08;97991.28;;;21.60;54.63
65227;BME280;51805;49.012;12.104;2023-02-19T02:46:33;97994.81;;;21.60;54.54
65227;BME280;51805;49.012;12.104;2023-02-19T02:49:05;97995.06;;;21.59;54.45
65227;BME280;51805;49.012;12.104;2023-02-19T02:51:33;97995.34;;;21.57;54.53
65227;BME280;51805;49.012;12.104;2023-02-19T02:54:02;97994.53;;;21.57;54.40
65227;BME280;51805;49.012;12.104;2023-02-19T02:56:29;97987.78;;;21.59;54.37
65227;BME280;51805;49.012;12.104;2023-02-19T02:58:55;97989.94;;;21.57;54.48
65227;BME280;51805;49.012;12.104;2023-02-19T03:01:28;97981.56;;;21.59;54.48
65227;BME280;51805;49.012;12.104;2023-02-19T03:03:56;97968.31;;;21.57;54.37
65227;BME280;51805;49.012;12.104;2023-02-19T03:06:24;97964.50;;;21.58;54.30
65227;BME280;51805;49.012;12.104;2023-02-19T03:08:55;97954.25;;;21.55;54.25
65227;BME280;51805;49.012;12.104;2023-02-19T03:11:21;97948.84;;;21.55;54.29
65227;BME280;51805;49.012;12.104;2023-02-19T03:13:46;97962.34;;;21.55;54.16
65227;BME280;51805;49.012;12.104;2023-02-19T03:16:14;97961.81;;;21.58;54.00
65227;BME280;51805;49.012;12.104;2023-02-19T03:18:41;97965.06;;;21.55;53.99
65227;BME280;51805;49.012;12.104;2023-02-19T03:21:09;97958.03;;;21.54;54.03
65227;BME280;51805;49.012;12.104;2023-02-19T03:23:35;97959.09;;;21.53;54.12
65227;BME280;51805;49.012;12.104;2023-02-19T03:26:01;97964.78;;;21.52;54.05
65227;BME280;51805;49.012;12.104;2023-02-19T03:28:27;97952.63;;;21.54;54.05
65227;BME280;51805;49.012;12.104;2023-02-19T03:30:54;97953.69;;;21.53;54.10
65227;BME280;51805;49.012;12.104;2023-02-19T03:33:23;97953.41;;;21.55;54.04
65227;BME280;51805;49.012;12.104;2023-02-19T03:35:59;97937.75;;;21.52;54.04
65227;BME280;51805;49.012;12.104;2023-02-19T03:41:09;97951.00;;;21.53;53.83
65227;BME280;51805;49.012;12.104;2023-02-19T03:43:37;97953.41;;;21.55;53.82
65227;BME280;51805;49.012;12.104;2023-02-19T03:46:07;97965.88;;;21.56;53.89
65227;BME280;51805;49.012;12.104;2023-02-19T03:58:56;97955.59;;;21.53;53.55
65227;BME280;51805;49.012;12.104;2023-02-19T04:04:03;97949.38;;;21.47;53.61
65227;BME280;51805;49.012;12.104;2023-02-19T04:06:30;97940.72;;;21.50;53.55
65227;BME280;51805;49.012;12.104;2023-02-19T04:08:58;97938.00;;;21.50;53.73
65227;BME280;51805;49.012;12.104;2023-02-19T04:11:25;97935.59;;;21.48;53.46
65227;BME280;51805;49.012;12.104;2023-02-19T04:16:20;97929.13;;;21.50;53.40
65227;BME280;51805;49.012;12.104;2023-02-19T04:18:46;97929.91;;;21.50;53.41
65227;BME280;51805;49.012;12.104;2023-02-19T04:21:13;97928.28;;;21.49;53.52
65227;BME280;51805;49.012;12.104;2023-02-19T04:23:39;97926.13;;;21.51;53.28
65227;BME280;51805;49.012;12.104;2023-02-19T04:26:06;97920.19;;;21.49;53.24
65227;BME280;51805;49.012;12.104;2023-02-19T04:28:32;97923.16;;;21.48;53.38
65227;BME280;51805;49.012;12.104;2023-02-19T04:30:57;97924.25;;;21.47;53.38
65227;BME280;51805;49.012;12.104;2023-02-19T04:33:22;97929.66;;;21.47;53.49
65227;BME280;51805;49.012;12.104;2023-02-19T04:35:47;97946.41;;;21.48;53.21
65227;BME280;51805;49.012;12.104;2023-02-19T04:38:13;97945.06;;;21.46;53.37
65227;BME280;51805;49.012;12.104;2023-02-19T04:40:38;97945.88;;;21.47;53.18
65227;BME280;51805;49.012;12.104;2023-02-19T04:43:03;97937.78;;;21.47;53.12
65227;BME280;51805;49.012;12.104;2023-02-19T04:45:28;97939.66;;;21.46;53.34
65227;BME280;51805;49.012;12.104;2023-02-19T04:47:53;97947.50;;;21.48;53.13
65227;BME280;51805;49.012;12.104;2023-02-19T04:50:18;97955.88;;;21.46;53.18
65227;BME280;51805;49.012;12.104;2023-02-19T04:52:43;97954.78;;;21.47;53.07
65227;BME280;51805;49.012;12.104;2023-02-19T04:55:09;97955.06;;;21.45;53.12
65227;BME280;51805;49.012;12.104;2023-02-19T04:57:34;97954.28;;;21.45;52.79
65227;BME280;51805;49.012;12.104;2023-02-19T04:59:59;97949.94;;;21.44;53.21
65227;BME280;51805;49.012;12.104;2023-02-19T05:02:24;97952.09;;;21.47;53.01
65227;BME280;51805;49.012;12.104;2023-02-19T05:04:50;97944.25;;;21.45;52.88
65227;BME280;51805;49.012;12.104;2023-02-19T05:07:15;97942.34;;;21.46;53.01
65227;BME280;51805;49.012;12.104;2023-02-19T05:09:40;97951.56;;;21.45;52.86
65227;BME280;51805;49.012;12.104;2023-02-19T05:12:05;97958.59;;;21.46;52.91
65227;BME280;51805;49.012;12.104;2023-02-19T05:14:30;97963.44;;;21.44;53.01
65227;BME280;51805;49.012;12.104;2023-02-19T05:16:55;97955.34;;;21.44;52.96
65227;BME280;51805;49.012;12.104;2023-02-19T05:19:20;97949.13;;;21.43;53.02
65227;BME280;51805;49.012;12.104;2023-02-19T05:21:45;97959.69;;;21.45;52.89
65227;BME280;51805;49.012;12.104;2023-02-19T05:24:11;97958.84;;;21.44;53.00
65227;BME280;51805;49.012;12.104;2023-02-19T05:26:36;97968.56;;;21.45;52.88
65227;BME280;51805;49.012;12.104;2023-02-19T05:29:01;97960.75;;;21.44;52.80
65227;BME280;51805;49.012;12.104;2023-02-19T05:31:26;97975.63;;;21.47;52.83
65227;BME280;51805;49.012;12.104;2023-02-19T05:33:53;97978.88;;;21.43;52.87
65227;BME280;51805;49.012;12.104;2023-02-19T05:36:19;97975.34;;;21.43;52.95
65227;BME280;51805;49.012;12.104;2023-02-19T05:38:45;97980.47;;;21.44;52.90
65227;BME280;51805;49.012;12.104;2023-02-19T05:41:12;97977.50;;;21.46;52.81
65227;BME280;51805;49.012;12.104;2023-02-19T05:43:40;97976.13;;;21.48;52.72
65227;BME280;51805;49.012;12.104;2023-02-19T05:46:06;97972.66;;;21.48;52.73
65227;BME280;51805;49.012;12.104;2023-02-19T05:48:32;97978.56;;;21.50;52.71
65227;BME280;51805;49.012;12.104;2023-02-19T05:51:03;97977.78;;;21.50;52.69
65227;BME280;51805;49.012;12.104;2023-02-19T05:53:29;97982.09;;;21.51;52.44
65227;BME280;51805;49.012;12.104;2023-02-19T05:55:54;97984.81;;;21.51;52.54
65227;BME280;51805;49.012;12.104;2023-02-19T05:58:19;97979.41;;;21.51;52.44
65227;BME280;51805;49.012;12.104;2023-02-19T06:00:44;97979.94;;;21.53;52.45
65227;BME280;51805;49.012;12.104;2023-02-19T06:03:09;97985.06;;;21.54;52.55
65227;BME280;51805;49.012;12.104;2023-02-19T06:05:35;97981.28;;;21.55;52.36
65227;BME280;51805;49.012;12.104;2023-02-19T06:08:00;97982.88;;;21.56;52.48
65227;BME280;51805;49.012;12.104;2023-02-19T06:10:25;97983.72;;;21.57;52.43
65227;BME280;51805;49.012;12.104;2023-02-19T06:12:51;97990.75;;;21.58;52.31
65227;BME280;51805;49.012;12.104;2023-02-19T06:15:17;97990.75;;;21.58;52.17
65227;BME280;51805;49.012;12.104;2023-02-19T06:17:42;98004.81;;;21.60;52.24
65227;BME280;51805;49.012;12.104;2023-02-19T06:20:07;98000.22;;;21.60;52.30
65227;BME280;51805;49.012;12.104;2023-02-19T06:22:32;97994.81;;;21.60;52.21
65227;BME280;51805;49.012;12.104;2023-02-19T06:24:57;98009.16;;;21.61;52.27
65227;BME280;51805;49.012;12.104;2023-02-19T06:27:23;98008.06;;;21.62;52.24
65227;BME280;51805;49.012;12.104;2023-02-19T06:29:48;98009.94;;;21.61;52.24
65227;BME280;51805;49.012;12.104;2023-02-19T06:32:13;98019.69;;;21.62;51.96
65227;BME280;51805;49.012;12.104;2023-02-19T06:34:38;98033.72;;;21.64;52.15
65227;BME280;51805;49.012;12.104;2023-02-19T06:37:03;98029.97;;;21.65;52.17
65227;BME280;51805;49.012;12.104;2023-02-19T06:39:28;98030.75;;;21.66;51.96
65227;BME280;51805;49.012;12.104;2023-02-19T06:41:54;98025.06;;;21.67;51.96
65227;BME280;51805;49.012;12.104;2023-02-19T06:44:19;97998.03;;;21.47;51.89
65227;BME280;51805;49.012;12.104;2023-02-19T06:46:44;98039.69;;;21.71;51.89
65227;BME280;51805;49.012;12.104;2023-02-19T06:49:10;98048.88;;;21.70;51.88
65227;BME280;51805;49.012;12.104;2023-02-19T06:51:35;98046.72;;;21.72;51.77
65227;BME280;51805;49.012;12.104;2023-02-19T06:54:00;98055.66;;;21.73;51.63
65227;BME280;51805;49.012;12.104;2023-02-19T06:56:26;98061.06;;;21.73;51.72
65227;BME280;51805;49.012;12.104;2023-02-19T06:58:52;98067.56;;;21.77;51.63
65227;BME280;51805;49.012;12.104;2023-02-19T07:01:18;98071.09;;;21.77;51.57
65227;BME280;51805;49.012;12.104;2023-02-19T07:03:44;98073.81;;;21.77;51.74
65227;BME280;51805;49.012;12.104;2023-02-19T07:06:09;98078.13;;;21.78;51.59
65227;BME280;51805;49.012;12.104;2023-02-19T07:08:34;98079.75;;;21.79;51.44
65227;BME280;51805;49.012;12.104;2023-02-19T07:10:59;98083.53;;;21.78;51.46
65227;BME280;51805;49.012;12.104;2023-02-19T07:13:25;98091.38;;;21.80;51.43
65227;BME280;51805;49.012;12.104;2023-02-19T07:15:50;98090.31;;;21.81;51.44
65227;BME280;51805;49.012;12.104;2023-02-19T07:18:15;98083.81;;;21.82;51.26
65227;BME280;51805;49.012;12.104;2023-02-19T07:20:40;98095.44;;;21.82;51.45
65227;BME280;51805;49.012;12.104;2023-02-19T07:23:05;98084.63;;;21.82;51.43
65227;BME280;51805;49.012;12.104;2023-02-19T07:25:31;98086.78;;;21.85;51.33
65227;BME280;51805;49.012;12.104;2023-02-19T07:27:56;98091.09;;;21.86;51.38
65227;BME280;51805;49.012;12.104;2023-02-19T07:30:21;98078.69;;;21.85;51.13
65227;BME280;51805;49.012;12.104;2023-02-19T07:32:46;98080.00;;;21.88;51.11
65227;BME280;51805;49.012;12.104;2023-02-19T07:35:11;98082.72;;;21.88;51.09
65227;BME280;51805;49.012;12.104;2023-02-19T07:37:36;98092.19;;;21.90;51.17
65227;BME280;51805;49.012;12.104;2023-02-19T07:40:02;98098.69;;;21.89;51.12
65227;BME280;51805;49.012;12.104;2023-02-19T07:42:27;98103.81;;;21.91;51.01
65227;BME280;51805;49.012;12.104;2023-02-19T07:44:52;98102.47;;;21.93;50.94
65227;BME280;51805;49.012;12.104;2023-02-19T07:47:17;98101.66;;;21.93;50.90
65227;BME280;51805;49.012;12.104;2023-02-19T07:49:42;98112.22;;;21.94;50.91
65227;BME280;51805;49.012;12.104;2023-02-19T07:52:07;98116.00;;;21.93;51.04
65227;BME280;51805;49.012;12.104;2023-02-19T07:54:32;98119.25;;;21.95;51.06
65227;BME280;51805;49.012;12.104;2023-02-19T07:56:58;98126.00;;;21.98;50.87
65227;BME280;51805;49.012;12.104;2023-02-19T07:59:23;98122.50;;;21.97;50.71
65227;BME280;51805;49.012;12.104;2023-02-19T08:01:48;98134.66;;;22.00;50.80
65227;BME280;51805;49.012;12.104;2023-02-19T08:04:14;98124.09;;;21.98;50.87
65227;BME280;51805;49.012;12.104;2023-02-19T08:06:39;98126.53;;;22.00;50.82
65227;BME280;51805;49.012;12.104;2023-02-19T08:09:04;98124.13;;;22.03;50.70
65227;BME280;51805;49.012;12.104;2023-02-19T08:11:29;98131.13;;;22.04;50.70
65227;BME280;51805;49.012;12.104;2023-02-19T08:16:20;98128.97;;;22.06;50.54
65227;BME280;51805;49.012;12.104;2023-02-19T08:18:46;98126.00;;;22.08;50.57
65227;BME280;51805;49.012;12.104;2023-02-19T08:21:12;98130.03;;;22.10;50.56
65227;BME280;51805;49.012;12.104;2023-02-19T08:23:37;98131.69;;;22.11;50.44
65227;BME280;51805;49.012;12.104;2023-02-19T08:26:02;98146.56;;;22.14;50.48
65227;BME280;51805;49.012;12.104;2023-02-19T08:28:29;98141.97;;;22.14;50.43
65227;BME280;51805;49.012;12.104;2023-02-19T08:30:57;98150.09;;;22.14;50.50
65227;BME280;51805;49.012;12.104;2023-02-19T08:33:22;98153.59;;;22.15;50.39
65227;BME280;51805;49.012;12.104;2023-02-19T08:35:48;98150.59;;;22.16;50.42
65227;BME280;51805;49.012;12.104;2023-02-19T08:38:13;98150.09;;;22.19;50.27
65227;BME280;51805;49.012;12.104;2023-02-19T08:40:39;98154.13;;;22.17;50.23
65227;BME280;51805;49.012;12.104;2023-02-19T08:43:05;98159.56;;;22.17;50.40
65227;BME280;51805;49.012;12.104;2023-02-19T08:45:31;98152.25;;;22.17;50.22
65227;BME280;51805;49.012;12.104;2023-02-19T08:47:56;98158.47;;;22.18;50.18
65227;BME280;51805;49.012;12.104;2023-02-19T08:50:22;98160.09;;;22.19;50.23
65227;BME280;51805;49.012;12.104;2023-02-19T08:52:47;98153.31;;;22.21;50.11
65227;BME280;51805;49.012;12.104;2023-02-19T08:55:12;98156.03;;;22.21;50.27
65227;BME280;51805;49.012;12.104;2023-02-19T08:57:37;98160.38;;;22.22;50.16
65227;BME280;51805;49.012;12.104;2023-02-19T09:00:03;98167.94;;;22.20;50.13
65227;BME280;51805;49.012;12.104;2023-02-19T09:02:28;98165.78;;;22.22;50.26
65227;BME280;51805;49.012;12.104;2023-02-19T09:04:53;98163.09;;;22.22;50.17
65227;BME280;51805;49.012;12.104;2023-02-19T09:07:19;98162.00;;;22.23;50.22
65227;BME280;51805;49.012;12.104;2023-02-19T09:09:44;98164.44;;;22.25;50.15
65227;BME280;51805;49.012;12.104;2023-02-19T09:12:10;98163.59;;;22.24;50.12
65227;BME280;51805;49.012;12.104;2023-02-19T09:14:35;98165.25;;;22.25;49.96
65227;BME280;51805;49.012;12.104;2023-02-19T09:17:01;98180.41;;;22.26;50.17
65227;BME280;51805;49.012;12.104;2023-02-19T09:19:27;98190.13;;;22.27;50.03
65227;BME280;51805;49.012;12.104;2023-02-19T09:21:52;98180.94;;;22.28;49.98
65227;BME280;51805;49.012;12.104;2023-02-19T09:24:17;98192.06;;;22.27;50.03
65227;BME280;51805;49.012;12.104;2023-02-19T09:26:42;98187.44;;;22.27;49.88
65227;BME280;51805;49.012;12.104;2023-02-19T09:29:07;98182.56;;;22.29;49.92
65227;BME280;51805;49.012;12.104;2023-02-19T09:31:33;98182.56;;;22.29;49.98
65227;BME280;51805;49.012;12.104;2023-02-19T09:33:58;98176.88;;;22.31;49.68
65227;BME280;51805;49.012;12.104;2023-02-19T09:36:23;98185.00;;;22.31;49.88
65227;BME280;51805;49.012;12.104;2023-02-19T09:38:48;98185.28;;;22.34;49.75
65227;BME280;51805;49.012;12.104;2023-02-19T09:41:25;98192.31;;;22.35;49.83
65227;BME280;51805;49.012;12.104;2023-02-19T09:43:53;98189.59;;;22.35;49.74
65227;BME280;51805;49.012;12.104;2023-02-19T09:46:22;98185.78;;;22.36;49.81
65227;BME280;51805;49.012;12.104;2023-02-19T09:48:48;98197.72;;;22.35;49.76
65227;BME280;51805;49.012;12.104;2023-02-19T09:51:14;98204.75;;;22.36;49.80
65227;BME280;51805;49.012;12.104;2023-02-19T09:53:42;98190.41;;;22.36;49.78
65227;BME280;51805;49.012;12.104;2023-02-19T09:56:08;98201.25;;;22.36;49.69
65227;BME280;51805;49.012;12.104;2023-02-19T09:58:46;98212.34;;;22.39;49.70
65227;BME280;51805;49.012;12.104;2023-02-19T10:01:12;98221.53;;;22.38;49.73
65227;BME280;51805;49.012;12.104;2023-02-19T10:03:38;98218.84;;;22.38;50.66
65227;BME280;51805;49.012;12.104;2023-02-19T10:06:05;98225.06;;;22.39;50.18
65227;BME280;51805;49.012;12.104;2023-02-19T10:08:32;98232.91;;;22.40;50.30
65227;BME280;51805;49.012;12.104;2023-02-19T10:10:57;98229.13;;;22.41;50.51
65227;BME280;51805;49.012;12.104;2023-02-19T10:16:23;98240.78;;;22.42;51.80
65227;BME280;51805;49.012;12.104;2023-02-19T10:18:49;98242.38;;;22.43;51.48
65227;BME280;51805;49.012;12.104;2023-02-19T10:21:15;98254.03;;;22.43;51.31
65227;BME280;51805;49.012;12.104;2023-02-19T10:23:41;98251.34;;;22.43;51.26
65227;BME280;51805;49.012;12.104;2023-02-19T10:26:06;98253.50;;;22.46;51.15
65227;BME280;51805;49.012;12.104;2023-02-19T10:28:32;98244.56;;;22.46;52.02
65227;BME280;51805;49.012;12.104;2023-02-19T10:30:59;98249.97;;;22.46;51.79
65227;BME280;51805;49.012;12.104;2023-02-19T10:33:24;98250.81;;;22.51;51.66
65227;BME280;51805;49.012;12.104;2023-02-19T10:35:54;98244.03;;;22.54;51.64
65227;BME280;51805;49.012;12.104;2023-02-19T10:38:21;98241.88;;;22.56;51.67
65227;BME280;51805;49.012;12.104;2023-02-19T10:40:47;98242.66;;;22.56;51.69
65227;BME280;51805;49.012;12.104;2023-02-19T10:43:21;98259.47;;;22.53;52.46
65227;BME280;51805;49.012;12.104;2023-02-19T10:45:47;98258.38;;;22.44;53.25
65227;BME280;51805;49.012;12.104;2023-02-19T10:48:20;98261.09;;;22.34;54.04
65227;BME280;51805;49.012;12.104;2023-02-19T10:50:46;98250.25;;;22.24;54.56
65227;BME280;51805;49.012;12.104;2023-02-19T10:53:21;98258.38;;;22.19;55.08
65227;BME280;51805;49.012;12.104;2023-02-19T10:55:46;98265.94;;;22.17;54.99
65227;BME280;51805;49.012;12.104;2023-02-19T10:58:24;98267.84;;;22.17;55.33
65227;BME280;51805;49.012;12.104;2023-02-19T11:01:08;98267.56;;;22.13;55.40
65227;BME280;51805;49.012;12.104;2023-02-19T11:03:33;98264.84;;;22.13;55.17
65227;BME280;51805;49.012;12.104;2023-02-19T11:05:59;98263.50;;;22.11;56.06
65227;BME280;51805;49.012;12.104;2023-02-19T11:08:25;98270.78;;;22.10;55.99
65227;BME280;51805;49.012;12.104;2023-02-19T11:10:51;98270.78;;;22.10;55.40
65227;BME280;51805;49.012;12.104;2023-02-19T11:13:19;98270.00;;;22.10;56.10
65227;BME280;51805;49.012;12.104;2023-02-19T11:15:49;98261.63;;;22.11;56.18
65227;BME280;51805;49.012;12.104;2023-02-19T11:18:20;98264.56;;;22.15;55.83
65227;BME280;51805;49.012;12.104;2023-02-19T11:20:48;98261.34;;;22.13;55.91
65227;BME280;51805;49.012;12.104;2023-02-19T11:23:17;98261.63;;;22.11;56.40
65227;BME280;51805;49.012;12.104;2023-02-19T11:25:43;98263.22;;;22.12;55.97
65227;BME280;51805;49.012;12.104;2023-02-19T11:28:19;98264.31;;;22.11;55.93
65227;BME280;51805;49.012;12.104;2023-02-19T11:30:46;98264.59;;;22.10;56.31
65227;BME280;51805;49.012;12.104;2023-02-19T11:33:12;98257.00;;;22.07;56.72
65227;BME280;51805;49.012;12.104;2023-02-19T11:35:43;98252.38;;;22.07;56.37
65227;BME280;51805;49.012;12.104;2023-02-19T11:38:09;98250.22;;;22.04;56.70
65227;BME280;51805;49.012;12.104;2023-02-19T11:40:39;98249.44;;;22.04;56.49
65227;BME280;51805;49.012;12.104;2023-02-19T11:53:26;98252.94;;;22.04;57.10
65227;BME280;51805;49.012;12.104;2023-02-19T11:58:28;98258.06;;;22.06;57.85
65227;BME280;51805;49.012;12.104;2023-02-19T12:01:14;98251.31;;;22.08;57.46
65227;BME280;51805;49.012;12.104;2023-02-19T12:14:45;98268.09;;;22.15;58.39
65227;BME280;51805;49.012;12.104;2023-02-19T12:22:16;98257.56;;;22.19;57.92
65227;BME280;51805;49.012;12.104;2023-02-19T12:25:21;98264.31;;;22.21;58.16
65227;BME280;51805;49.012;12.104;2023-02-19T12:27:46;98262.72;;;22.25;57.90
65227;BME280;51805;49.012;12.104;2023-02-19T12:30:23;98260.81;;;22.31;57.94
65227;BME280;51805;49.012;12.104;2023-02-19T12:32:56;98273.00;;;22.38;56.63
65227;BME280;51805;49.012;12.104;2023-02-19T12:38:16;98275.72;;;22.58;55.42
65227;BME280;51805;49.012;12.104;2023-02-19T12:43:23;98282.75;;;22.69;55.27
65227;BME280;51805;49.012;12.104;2023-02-19T12:45:52;98269.50;;;22.68;56.50
65227;BME280;51805;49.012;12.104;2023-02-19T12:48:35;98275.72;;;22.68;55.51
65227;BME280;51805;49.012;12.104;2023-02-19T12:51:07;98272.47;;;22.71;55.11
65227;BME280;51805;49.012;12.104;2023-02-19T12:53:37;98280.88;;;22.70;55.26
65227;BME280;51805;49.012;12.104;2023-02-19T12:56:04;98296.03;;;22.71;55.40
65227;BME280;51805;49.012;12.104;2023-02-19T12:58:45;98287.63;;;22.72;55.31
65227;BME280;51805;49.012;12.104;2023-02-19T13:01:13;98294.13;;;22.76;55.39
65227;BME280;51805;49.012;12.104;2023-02-19T13:03:40;98293.06;;;22.77;55.37
65227;BME280;51805;49.012;12.104;2023-02-19T13:06:13;98292.25;;;22.77;56.07
65227;BME280;51805;49.012;12.104;2023-02-19T13:08:53;98288.16;;;22.79;55.56
65227;BME280;51805;49.012;12.104;2023-02-19T13:11:22;98283.28;;;22.81;56.26
65227;BME280;51805;49.012;12.104;2023-02-19T13:13:53;98299.00;;;22.84;55.88
65227;BME280;51805;49.012;12.104;2023-02-19T13:16:20;98300.66;;;22.85;55.80
65227;BME280;51805;49.012;12.104;2023-02-19T13:18:47;98300.09;;;22.88;55.74
65227;BME280;51805;49.012;12.104;2023-02-19T13:21:13;98305.75;;;22.92;56.00
65227;BME280;51805;49.012;12.104;2023-02-19T13:23:40;98289.22;;;22.93;56.01
65227;BME280;51805;49.012;12.104;2023-02-19T13:36:42;98277.81;;;19.66;49.48
65227;BME280;51805;49.012;12.104;2023-02-19T13:39:09;98271.31;;;19.62;49.80
65227;BME280;51805;49.012;12.104;2023-02-19T13:41:38;98274.34;;;19.44;47.40
65227;BME280;51805;49.012;12.104;2023-02-19T13:44:05;98274.31;;;19.66;48.58
65227;BME280;51805;49.012;12.104;2023-02-19T13:46:35;98272.00;;;19.53;46.56
65227;BME280;51805;49.012;12.104;2023-02-19T13:51:53;98260.19;;;18.94;46.25
65227;BME280;51805;49.012;12.104;2023-02-19T13:54:28;98276.75;;;19.24;48.05
65227;BME280;51805;49.012;12.104;2023-02-19T13:59:38;98277.53;;;19.41;45.55
65227;BME280;51805;49.012;12.104;2023-02-19T14:17:26;98277.94;;;19.12;45.11
65227;BME280;51805;49.012;12.104;2023-02-19T14:19:52;98284.38;;;19.27;45.35
65227;BME280;51805;49.012;12.104;2023-02-19T14:25:02;98299.06;;;18.65;44.90
65227;BME280;51805;49.012;12.104;2023-02-19T14:27:31;98297.34;;;18.59;46.04